CDT,Max TemperatureF,Mean TemperatureF,Min TemperatureF,Max Dew PointF,MeanDew PointF,Min DewpointF,Max Humidity, Mean Humidity, Min Humidity, Max Sea Level PressureIn, Mean Sea Level PressureIn, Min Sea Level PressureIn, Max VisibilityMiles, Mean VisibilityMiles, Min VisibilityMiles, Max Wind SpeedMPH, Mean Wind SpeedMPH, Max Gust SpeedMPH,PrecipitationIn, CloudCover, Events, WindDirDegrees
2012-10-1,80,68,57,63,57,52,100,70,37,29.91,29.87,29.84,7,7,6,14,7,22,0.00,1,,286
2012-10-2,78,70,60,57,54,52,82,62,44,30.01,29.96,29.91,7,7,7,16,9,22,0.00,2,,301
2012-10-3,82,70,57,57,55,54,88,60,39,30.03,29.98,29.94,7,7,7,15,5,21,0.00,0,,151
2012-10-4,87,76,66,70,67,59,88,74,55,30.09,30.04,29.97,7,7,7,23,13,31,0.00,5,,141
2012-10-5,87,78,69,70,67,61,100,74,40,30.11,30.05,29.95,7,7,6,17,12,23,0.00,3,,166
2012-10-6,68,60,51,61,52,45,94,82,72,30.20,30.09,29.98,7,6,3,17,14,23,0.00,8,Rain,334
2012-10-7,55,52,46,46,40,36,87,69,54,30.28,30.24,30.19,7,7,7,16,13,23,0.00,8,Rain,335
2012-10-8,66,57,48,48,43,39,82,64,49,30.28,30.19,30.10,7,7,7,9,6,,0.00,4,,352
2012-10-9,82,68,53,64,58,48,94,73,51,30.08,30.00,29.89,7,7,7,23,10,31,0.00,4,,171
2012-10-10,86,76,66,72,68,64,100,82,51,30.13,30.07,29.96,7,6,0,16,7,,0.00,5,Fog,153
2012-10-11,84,78,71,75,71,68,100,88,66,30.18,30.09,30.04,7,7,4,21,10,26,0.06,5,Rain,150
2012-10-12,86,78,69,72,69,64,100,83,51,30.19,30.12,30.06,7,7,4,16,11,23,0.00,4,,145
2012-10-13,80,76,73,73,70,70,94,83,70,30.09,30.00,29.88,7,7,7,21,16,28,0.01,7,Rain,151
2012-10-14,84,74,64,72,60,48,88,62,29,30.12,30.02,29.92,7,7,7,22,12,33,0.05,3,Rain-Thunderstorm,256
2012-10-15,78,69,60,55,50,46,68,52,34,30.15,30.07,30.00,7,7,7,10,7,,0.00,5,,208
2012-10-16,71,66,62,66,61,52,100,81,64,29.98,29.85,29.77,7,7,4,17,9,25,0.05,7,Rain,168
2012-10-17,93,80,66,68,62,50,100,74,26,29.79,29.71,29.60,7,7,7,21,17,28,0.00,5,,202
2012-10-18,78,68,59,46,37,30,59,35,18,30.02,29.93,29.79,7,7,7,16,10,20,0.00,2,,356
2012-10-19,80,63,46,45,38,36,66,40,20,30.06,29.99,29.91,7,7,7,9,4,,0.00,0,,220
2012-10-20,86,70,55,72,58,37,83,65,48,29.93,29.86,29.78,7,7,7,23,12,30,0.00,3,,169
2012-10-21,89,81,73,72,69,64,89,74,43,29.93,29.86,29.81,7,7,7,22,17,29,0.00,5,,163
2012-10-22,87,79,71,72,69,63,94,76,43,30.01,29.94,29.90,7,7,6,21,15,29,0.00,4,,151
2012-10-23,80,76,71,70,68,66,94,80,65,29.99,29.95,29.91,7,7,6,17,13,23,0.00,5,,142
2012-10-24,82,74,66,68,64,55,100,75,48,30.00,29.93,29.86,7,7,6,21,12,29,0.00,5,,157
2012-10-25,84,72,60,68,61,45,88,68,45,30.05,29.89,29.81,7,7,7,24,15,30,0.00,5,,179
2012-10-26,59,54,46,45,40,34,76,61,50,30.32,30.20,30.06,7,7,7,23,16,33,0.02,7,Rain,324
2012-10-27,60,51,42,34,30,25,66,46,25,30.37,30.25,30.11,7,7,7,15,10,22,0.00,3,,330
2012-10-28,64,52,39,34,29,27,66,44,24,30.32,30.22,30.12,7,7,7,13,7,,0.00,1,,321
2012-10-29,68,52,37,37,34,30,81,52,28,30.31,30.22,30.12,7,7,7,8,3,,0.00,0,,165
2012-10-30,77,62,48,50,42,34,68,49,31,30.13,30.04,29.96,7,7,7,14,6,20,0.00,0,,176
2012-10-31,84,72,59,59,52,48,82,59,30,30.07,30.01,29.87,7,7,7,13,7,16,0.00,1,,218